sensor_id;sensor_type;location;lat;lon;timestamp;temperature;humidity
60234;DHT22;49514;43.538;-5.708;2023-04-06T00:00:35;10.40;99.90
60234;DHT22;49514;43.538;-5.708;2023-04-06T00:03:02;10.30;99.90
60234;DHT22;49514;43.538;-5.708;2023-04-06T00:05:29;10.20;99.90
60234;DHT22;49514;43.538;-5.708;2023-04-06T00:07:59;10.20;99.90
60234;DHT22;49514;43.538;-5.708;2023-04-06T00:10:26;10.10;99.90
60234;DHT22;49514;43.538;-5.708;2023-04-06T00:12:54;10.10;99.90
60234;DHT22;49514;43.538;-5.708;2023-04-06T00:15:21;10.10;99.90
60234;DHT22;49514;43.538;-5.708;2023-04-06T00:17:47;10.00;99.90
60234;DHT22;49514;43.538;-5.708;2023-04-06T00:20:15;10.00;99.90
60234;DHT22;49514;43.538;-5.708;2023-04-06T00:22:43;10.00;99.90
60234;DHT22;49514;43.538;-5.708;2023-04-06T00:25:10;9.90;99.90
60234;DHT22;49514;43.538;-5.708;2023-04-06T00:27:38;9.90;99.90
60234;DHT22;49514;43.538;-5.708;2023-04-06T00:30:05;9.80;99.90
60234;DHT22;49514;43.538;-5.708;2023-04-06T00:32:32;9.80;99.90
60234;DHT22;49514;43.538;-5.708;2023-04-06T00:34:59;9.80;99.90
60234;DHT22;49514;43.538;-5.708;2023-04-06T00:37:26;9.70;99.90
60234;DHT22;49514;43.538;-5.708;2023-04-06T00:39:52;9.80;99.90
60234;DHT22;49514;43.538;-5.708;2023-04-06T00:42:21;9.70;99.90
60234;DHT22;49514;43.538;-5.708;2023-04-06T00:44:56;9.70;99.90
60234;DHT22;49514;43.538;-5.708;2023-04-06T00:47:24;9.70;99.90
60234;DHT22;49514;43.538;-5.708;2023-04-06T00:49:54;9.70;99.90
60234;DHT22;49514;43.538;-5.708;2023-04-06T00:52:21;9.70;99.90
60234;DHT22;49514;43.538;-5.708;2023-04-06T00:54:50;9.60;99.90
60234;DHT22;49514;43.538;-5.708;2023-04-06T00:57:18;9.60;99.90
60234;DHT22;49514;43.538;-5.708;2023-04-06T00:59:47;9.60;99.90
60234;DHT22;49514;43.538;-5.708;2023-04-06T01:02:14;9.50;99.90
60234;DHT22;49514;43.538;-5.708;2023-04-06T01:04:46;9.50;99.90
60234;DHT22;49514;43.538;-5.708;2023-04-06T01:07:23;9.40;99.90
60234;DHT22;49514;43.538;-5.708;2023-04-06T01:10:04;9.30;99.90
60234;DHT22;49514;43.538;-5.708;2023-04-06T01:12:33;9.30;99.90
60234;DHT22;49514;43.538;-5.708;2023-04-06T01:15:03;9.30;99.90
60234;DHT22;49514;43.538;-5.708;2023-04-06T01:17:33;9.30;99.90
60234;DHT22;49514;43.538;-5.708;2023-04-06T01:20:07;9.30;99.90
60234;DHT22;49514;43.538;-5.708;2023-04-06T01:22:35;9.20;99.90
60234;DHT22;49514;43.538;-5.708;2023-04-06T01:25:03;9.20;99.90
60234;DHT22;49514;43.538;-5.708;2023-04-06T01:27:53;9.30;99.90
60234;DHT22;49514;43.538;-5.708;2023-04-06T01:30:39;9.20;99.90
60234;DHT22;49514;43.538;-5.708;2023-04-06T01:33:21;9.10;99.90
60234;DHT22;49514;43.538;-5.708;2023-04-06T01:36:04;9.00;99.90
60234;DHT22;49514;43.538;-5.708;2023-04-06T01:38:31;9.00;99.90
60234;DHT22;49514;43.538;-5.708;2023-04-06T01:40:58;9.00;99.90
60234;DHT22;49514;43.538;-5.708;2023-04-06T01:43:27;9.00;99.90
60234;DHT22;49514;43.538;-5.708;2023-04-06T01:46:02;8.90;99.90
60234;DHT22;49514;43.538;-5.708;2023-04-06T01:48:33;8.90;99.90
60234;DHT22;49514;43.538;-5.708;2023-04-06T01:51:06;8.90;99.90
60234;DHT22;49514;43.538;-5.708;2023-04-06T01:53:37;8.90;99.90
60234;DHT22;49514;43.538;-5.708;2023-04-06T01:56:06;8.80;99.90
60234;DHT22;49514;43.538;-5.708;2023-04-06T01:58:37;8.80;99.90
60234;DHT22;49514;43.538;-5.708;2023-04-06T02:01:04;8.80;99.90
60234;DHT22;49514;43.538;-5.708;2023-04-06T02:03:42;8.80;99.90
60234;DHT22;49514;43.538;-5.708;2023-04-06T02:06:11;8.80;99.90
60234;DHT22;49514;43.538;-5.708;2023-04-06T02:08:40;8.70;99.90
60234;DHT22;49514;43.538;-5.708;2023-04-06T02:11:07;8.70;99.90
60234;DHT22;49514;43.538;-5.708;2023-04-06T02:13:40;8.60;99.90
60234;DHT22;49514;43.538;-5.708;2023-04-06T02:16:06;8.60;99.90
60234;DHT22;49514;43.538;-5.708;2023-04-06T02:18:33;8.50;99.90
60234;DHT22;49514;43.538;-5.708;2023-04-06T02:21:00;8.50;99.90
60234;DHT22;49514;43.538;-5.708;2023-04-06T02:23:27;8.50;99.90
60234;DHT22;49514;43.538;-5.708;2023-04-06T02:25:53;8.40;99.90
60234;DHT22;49514;43.538;-5.708;2023-04-06T02:28:20;8.40;99.90
60234;DHT22;49514;43.538;-5.708;2023-04-06T02:30:47;8.40;99.90
60234;DHT22;49514;43.538;-5.708;2023-04-06T02:33:14;8.30;99.90
60234;DHT22;49514;43.538;-5.708;2023-04-06T02:35:46;8.20;99.90
60234;DHT22;49514;43.538;-5.708;2023-04-06T02:38:13;8.10;99.90
60234;DHT22;49514;43.538;-5.708;2023-04-06T02:40:39;8.10;99.90
60234;DHT22;49514;43.538;-5.708;2023-04-06T02:43:19;8.00;99.90
60234;DHT22;49514;43.538;-5.708;2023-04-06T02:45:46;7.90;99.90
60234;DHT22;49514;43.538;-5.708;2023-04-06T02:48:13;7.90;99.90
60234;DHT22;49514;43.538;-5.708;2023-04-06T02:50:41;7.90;99.90
60234;DHT22;49514;43.538;-5.708;2023-04-06T02:53:08;7.80;99.90
60234;DHT22;49514;43.538;-5.708;2023-04-06T02:55:37;7.80;99.90
60234;DHT22;49514;43.538;-5.708;2023-04-06T02:58:03;7.80;99.90
60234;DHT22;49514;43.538;-5.708;2023-04-06T03:03:54;7.70;99.90
60234;DHT22;49514;43.538;-5.708;2023-04-06T03:06:25;7.70;99.90
60234;DHT22;49514;43.538;-5.708;2023-04-06T03:08:56;7.60;99.90
60234;DHT22;49514;43.538;-5.708;2023-04-06T03:11:24;7.60;99.90
60234;DHT22;49514;43.538;-5.708;2023-04-06T03:13:52;7.60;99.90
60234;DHT22;49514;43.538;-5.708;2023-04-06T03:16:19;7.60;99.90
60234;DHT22;49514;43.538;-5.708;2023-04-06T03:18:45;7.50;99.90
60234;DHT22;49514;43.538;-5.708;2023-04-06T03:21:13;7.50;99.90
60234;DHT22;49514;43.538;-5.708;2023-04-06T03:23:48;7.40;99.90
60234;DHT22;49514;43.538;-5.708;2023-04-06T03:26:18;7.40;99.90
60234;DHT22;49514;43.538;-5.708;2023-04-06T03:28:45;7.40;99.90
60234;DHT22;49514;43.538;-5.708;2023-04-06T03:31:11;7.40;99.90
60234;DHT22;49514;43.538;-5.708;2023-04-06T03:33:58;7.40;99.90
60234;DHT22;49514;43.538;-5.708;2023-04-06T03:36:33;7.40;99.90
60234;DHT22;49514;43.538;-5.708;2023-04-06T03:39:01;7.40;99.90
60234;DHT22;49514;43.538;-5.708;2023-04-06T03:41:27;7.30;99.90
60234;DHT22;49514;43.538;-5.708;2023-04-06T03:44:15;7.30;99.90
60234;DHT22;49514;43.538;-5.708;2023-04-06T03:46:44;7.30;99.90
60234;DHT22;49514;43.538;-5.708;2023-04-06T03:49:11;7.20;99.90
60234;DHT22;49514;43.538;-5.708;2023-04-06T03:51:37;7.20;99.90
60234;DHT22;49514;43.538;-5.708;2023-04-06T03:54:04;7.20;99.90
60234;DHT22;49514;43.538;-5.708;2023-04-06T03:56:30;7.20;99.90
60234;DHT22;49514;43.538;-5.708;2023-04-06T03:58:57;7.20;99.90
60234;DHT22;49514;43.538;-5.708;2023-04-06T04:01:23;7.10;99.90
60234;DHT22;49514;43.538;-5.708;2023-04-06T04:03:49;7.20;99.90
60234;DHT22;49514;43.538;-5.708;2023-04-06T04:06:16;7.20;99.90
60234;DHT22;49514;43.538;-5.708;2023-04-06T04:08:42;7.20;99.90
60234;DHT22;49514;43.538;-5.708;2023-04-06T04:11:09;7.30;99.90
60234;DHT22;49514;43.538;-5.708;2023-04-06T04:13:35;7.30;99.90
60234;DHT22;49514;43.538;-5.708;2023-04-06T04:16:05;7.30;99.90
60234;DHT22;49514;43.538;-5.708;2023-04-06T04:18:31;7.20;99.90
60234;DHT22;49514;43.538;-5.708;2023-04-06T04:20:57;7.20;99.90
60234;DHT22;49514;43.538;-5.708;2023-04-06T04:23:24;7.20;99.90
60234;DHT22;49514;43.538;-5.708;2023-04-06T04:25:51;7.20;99.90
60234;DHT22;49514;43.538;-5.708;2023-04-06T04:28:17;7.20;99.90
60234;DHT22;49514;43.538;-5.708;2023-04-06T04:30:45;7.20;99.90
60234;DHT22;49514;43.538;-5.708;2023-04-06T04:33:12;7.20;99.90
60234;DHT22;49514;43.538;-5.708;2023-04-06T04:35:40;7.20;99.90
60234;DHT22;49514;43.538;-5.708;2023-04-06T04:38:07;7.20;99.90
60234;DHT22;49514;43.538;-5.708;2023-04-06T04:40:37;7.10;99.90
60234;DHT22;49514;43.538;-5.708;2023-04-06T04:43:08;7.10;99.90
60234;DHT22;49514;43.538;-5.708;2023-04-06T04:45:34;7.10;99.90
60234;DHT22;49514;43.538;-5.708;2023-04-06T04:48:16;7.10;99.90
60234;DHT22;49514;43.538;-5.708;2023-04-06T04:50:51;7.00;99.90
60234;DHT22;49514;43.538;-5.708;2023-04-06T04:53:20;7.00;99.90
60234;DHT22;49514;43.538;-5.708;2023-04-06T04:55:47;7.00;99.90
60234;DHT22;49514;43.538;-5.708;2023-04-06T04:58:15;7.00;99.90
60234;DHT22;49514;43.538;-5.708;2023-04-06T05:00:49;6.90;99.90
60234;DHT22;49514;43.538;-5.708;2023-04-06T05:03:22;6.90;99.90
60234;DHT22;49514;43.538;-5.708;2023-04-06T05:05:56;6.90;99.90
60234;DHT22;49514;43.538;-5.708;2023-04-06T05:08:26;6.90;99.90
60234;DHT22;49514;43.538;-5.708;2023-04-06T05:10:53;7.00;99.90
60234;DHT22;49514;43.538;-5.708;2023-04-06T05:13:20;6.90;99.90
60234;DHT22;49514;43.538;-5.708;2023-04-06T05:15:49;6.90;99.90
60234;DHT22;49514;43.538;-5.708;2023-04-06T05:18:23;6.90;99.90
60234;DHT22;49514;43.538;-5.708;2023-04-06T05:20:51;6.80;99.90
60234;DHT22;49514;43.538;-5.708;2023-04-06T05:23:21;6.80;99.90
60234;DHT22;49514;43.538;-5.708;2023-04-06T05:25:48;6.80;99.90
60234;DHT22;49514;43.538;-5.708;2023-04-06T05:28:19;6.70;99.90
60234;DHT22;49514;43.538;-5.708;2023-04-06T05:30:46;6.70;99.90
60234;DHT22;49514;43.538;-5.708;2023-04-06T05:33:14;6.60;99.90
60234;DHT22;49514;43.538;-5.708;2023-04-06T05:36:01;6.60;99.90
60234;DHT22;49514;43.538;-5.708;2023-04-06T05:38:28;6.60;99.90
60234;DHT22;49514;43.538;-5.708;2023-04-06T05:40:58;6.60;99.90
60234;DHT22;49514;43.538;-5.708;2023-04-06T05:43:28;6.60;99.90
60234;DHT22;49514;43.538;-5.708;2023-04-06T05:45:57;6.50;99.90
60234;DHT22;49514;43.538;-5.708;2023-04-06T05:48:24;6.50;99.90
60234;DHT22;49514;43.538;-5.708;2023-04-06T05:50:51;6.50;99.90
60234;DHT22;49514;43.538;-5.708;2023-04-06T05:53:21;6.50;99.90
60234;DHT22;49514;43.538;-5.708;2023-04-06T05:55:53;6.50;99.90
60234;DHT22;49514;43.538;-5.708;2023-04-06T05:58:21;6.40;99.90
60234;DHT22;49514;43.538;-5.708;2023-04-06T06:00:50;6.40;99.90
60234;DHT22;49514;43.538;-5.708;2023-04-06T06:03:20;6.40;99.90
60234;DHT22;49514;43.538;-5.708;2023-04-06T06:05:53;6.40;99.90
60234;DHT22;49514;43.538;-5.708;2023-04-06T06:08:27;6.40;99.90
60234;DHT22;49514;43.538;-5.708;2023-04-06T06:10:55;6.40;99.90
60234;DHT22;49514;43.538;-5.708;2023-04-06T06:13:23;6.40;99.90
60234;DHT22;49514;43.538;-5.708;2023-04-06T06:15:51;6.40;99.90
60234;DHT22;49514;43.538;-5.708;2023-04-06T06:18:19;6.40;99.90
60234;DHT22;49514;43.538;-5.708;2023-04-06T06:20:49;6.40;99.90
60234;DHT22;49514;43.538;-5.708;2023-04-06T06:23:16;6.40;99.90
60234;DHT22;49514;43.538;-5.708;2023-04-06T06:25:43;6.40;99.90
60234;DHT22;49514;43.538;-5.708;2023-04-06T06:28:11;6.40;99.90
60234;DHT22;49514;43.538;-5.708;2023-04-06T06:30:38;6.40;99.90
60234;DHT22;49514;43.538;-5.708;2023-04-06T06:33:05;6.40;99.90
60234;DHT22;49514;43.538;-5.708;2023-04-06T06:35:32;6.40;99.90
60234;DHT22;49514;43.538;-5.708;2023-04-06T06:38:02;6.40;99.90
60234;DHT22;49514;43.538;-5.708;2023-04-06T06:40:29;6.50;99.90
60234;DHT22;49514;43.538;-5.708;2023-04-06T06:42:56;6.50;99.90
60234;DHT22;49514;43.538;-5.708;2023-04-06T06:45:46;6.60;99.90
60234;DHT22;49514;43.538;-5.708;2023-04-06T06:48:13;6.60;99.90
60234;DHT22;49514;43.538;-5.708;2023-04-06T06:50:40;6.70;99.90
60234;DHT22;49514;43.538;-5.708;2023-04-06T06:53:07;6.70;99.90
60234;DHT22;49514;43.538;-5.708;2023-04-06T06:55:34;6.70;99.90
60234;DHT22;49514;43.538;-5.708;2023-04-06T06:58:01;6.80;99.90
60234;DHT22;49514;43.538;-5.708;2023-04-06T07:00:27;6.90;99.90
60234;DHT22;49514;43.538;-5.708;2023-04-06T07:02:54;7.00;99.90
60234;DHT22;49514;43.538;-5.708;2023-04-06T07:05:21;7.20;99.90
60234;DHT22;49514;43.538;-5.708;2023-04-06T07:07:48;7.40;99.90
60234;DHT22;49514;43.538;-5.708;2023-04-06T07:10:15;7.60;99.90
60234;DHT22;49514;43.538;-5.708;2023-04-06T07:12:41;7.90;99.90
60234;DHT22;49514;43.538;-5.708;2023-04-06T07:15:08;8.10;99.90
60234;DHT22;49514;43.538;-5.708;2023-04-06T07:17:35;8.30;99.90
60234;DHT22;49514;43.538;-5.708;2023-04-06T07:20:02;8.50;99.90
60234;DHT22;49514;43.538;-5.708;2023-04-06T07:22:31;8.60;99.90
60234;DHT22;49514;43.538;-5.708;2023-04-06T07:24:57;8.60;99.90
60234;DHT22;49514;43.538;-5.708;2023-04-06T07:27:24;8.70;99.90
60234;DHT22;49514;43.538;-5.708;2023-04-06T07:29:51;8.80;99.90
60234;DHT22;49514;43.538;-5.708;2023-04-06T07:32:18;8.90;99.90
60234;DHT22;49514;43.538;-5.708;2023-04-06T07:34:44;9.00;99.90
60234;DHT22;49514;43.538;-5.708;2023-04-06T07:37:11;9.10;99.90
60234;DHT22;49514;43.538;-5.708;2023-04-06T07:39:38;9.40;99.90
60234;DHT22;49514;43.538;-5.708;2023-04-06T07:42:06;9.70;99.90
60234;DHT22;49514;43.538;-5.708;2023-04-06T07:44:34;9.70;99.90
60234;DHT22;49514;43.538;-5.708;2023-04-06T07:47:01;9.60;99.90
60234;DHT22;49514;43.538;-5.708;2023-04-06T07:49:29;9.60;99.90
60234;DHT22;49514;43.538;-5.708;2023-04-06T07:51:56;9.50;99.90
60234;DHT22;49514;43.538;-5.708;2023-04-06T07:54:23;9.50;99.90
60234;DHT22;49514;43.538;-5.708;2023-04-06T07:56:50;9.40;99.90
60234;DHT22;49514;43.538;-5.708;2023-04-06T07:59:17;9.40;99.90
60234;DHT22;49514;43.538;-5.708;2023-04-06T08:01:43;9.40;99.90
60234;DHT22;49514;43.538;-5.708;2023-04-06T08:04:10;9.40;99.90
60234;DHT22;49514;43.538;-5.708;2023-04-06T08:06:37;9.40;99.90
60234;DHT22;49514;43.538;-5.708;2023-04-06T08:09:04;9.40;99.90
60234;DHT22;49514;43.538;-5.708;2023-04-06T08:11:31;9.50;99.90
60234;DHT22;49514;43.538;-5.708;2023-04-06T08:13:58;9.50;99.90
60234;DHT22;49514;43.538;-5.708;2023-04-06T08:16:25;9.60;99.90
60234;DHT22;49514;43.538;-5.708;2023-04-06T08:18:52;9.60;99.90
60234;DHT22;49514;43.538;-5.708;2023-04-06T08:21:18;9.60;99.90
60234;DHT22;49514;43.538;-5.708;2023-04-06T08:23:45;9.70;99.90
60234;DHT22;49514;43.538;-5.708;2023-04-06T08:26:12;9.70;99.90
60234;DHT22;49514;43.538;-5.708;2023-04-06T08:28:39;9.80;99.90
60234;DHT22;49514;43.538;-5.708;2023-04-06T08:31:06;9.90;99.90
60234;DHT22;49514;43.538;-5.708;2023-04-06T08:33:33;9.90;99.90
60234;DHT22;49514;43.538;-5.708;2023-04-06T08:36:13;10.00;99.90
60234;DHT22;49514;43.538;-5.708;2023-04-06T08:38:41;10.10;99.90
60234;DHT22;49514;43.538;-5.708;2023-04-06T08:43:44;10.20;99.90
60234;DHT22;49514;43.538;-5.708;2023-04-06T08:46:13;10.20;99.90
60234;DHT22;49514;43.538;-5.708;2023-04-06T08:48:41;10.40;99.90
60234;DHT22;49514;43.538;-5.708;2023-04-06T08:51:11;10.40;99.90
60234;DHT22;49514;43.538;-5.708;2023-04-06T08:53:38;10.40;99.90
60234;DHT22;49514;43.538;-5.708;2023-04-06T08:56:05;10.50;99.90
60234;DHT22;49514;43.538;-5.708;2023-04-06T08:58:35;10.50;99.90
60234;DHT22;49514;43.538;-5.708;2023-04-06T09:01:06;10.50;99.90
60234;DHT22;49514;43.538;-5.708;2023-04-06T09:03:40;10.60;99.90
60234;DHT22;49514;43.538;-5.708;2023-04-06T09:06:07;10.60;99.90
60234;DHT22;49514;43.538;-5.708;2023-04-06T09:08:35;10.70;99.90
60234;DHT22;49514;43.538;-5.708;2023-04-06T09:11:03;10.80;99.90
60234;DHT22;49514;43.538;-5.708;2023-04-06T09:13:31;10.80;99.90
60234;DHT22;49514;43.538;-5.708;2023-04-06T09:16:02;10.80;99.90
60234;DHT22;49514;43.538;-5.708;2023-04-06T09:18:33;10.90;99.90
60234;DHT22;49514;43.538;-5.708;2023-04-06T09:21:02;10.90;99.90
60234;DHT22;49514;43.538;-5.708;2023-04-06T09:23:29;11.00;99.90
60234;DHT22;49514;43.538;-5.708;2023-04-06T09:26:16;11.00;99.90
60234;DHT22;49514;43.538;-5.708;2023-04-06T09:28:49;11.10;99.90
60234;DHT22;49514;43.538;-5.708;2023-04-06T09:31:24;11.10;99.90
60234;DHT22;49514;43.538;-5.708;2023-04-06T09:33:52;11.20;99.90
60234;DHT22;49514;43.538;-5.708;2023-04-06T09:36:19;11.20;99.90
60234;DHT22;49514;43.538;-5.708;2023-04-06T09:38:56;11.20;99.90
60234;DHT22;49514;43.538;-5.708;2023-04-06T09:44:12;11.30;99.90
60234;DHT22;49514;43.538;-5.708;2023-04-06T09:46:42;11.40;99.90
60234;DHT22;49514;43.538;-5.708;2023-04-06T09:49:10;11.40;99.90
60234;DHT22;49514;43.538;-5.708;2023-04-06T09:51:54;11.50;99.90
60234;DHT22;49514;43.538;-5.708;2023-04-06T09:54:22;11.50;99.90
60234;DHT22;49514;43.538;-5.708;2023-04-06T09:57:11;11.60;99.90
60234;DHT22;49514;43.538;-5.708;2023-04-06T09:59:47;11.60;99.90
60234;DHT22;49514;43.538;-5.708;2023-04-06T10:02:30;11.60;99.90
60234;DHT22;49514;43.538;-5.708;2023-04-06T10:07:31;11.70;99.90
60234;DHT22;49514;43.538;-5.708;2023-04-06T10:09:59;11.80;99.90
60234;DHT22;49514;43.538;-5.708;2023-04-06T10:12:27;11.90;99.90
60234;DHT22;49514;43.538;-5.708;2023-04-06T10:14:53;12.00;99.90
60234;DHT22;49514;43.538;-5.708;2023-04-06T10:17:20;12.10;99.90
60234;DHT22;49514;43.538;-5.708;2023-04-06T10:20:04;12.10;99.90
60234;DHT22;49514;43.538;-5.708;2023-04-06T10:22:49;12.20;99.90
60234;DHT22;49514;43.538;-5.708;2023-04-06T10:25:30;12.20;99.90
60234;DHT22;49514;43.538;-5.708;2023-04-06T10:28:08;12.30;99.90
60234;DHT22;49514;43.538;-5.708;2023-04-06T10:30:42;12.30;99.90
60234;DHT22;49514;43.538;-5.708;2023-04-06T10:33:19;12.30;99.90
60234;DHT22;49514;43.538;-5.708;2023-04-06T10:35:46;12.30;99.90
60234;DHT22;49514;43.538;-5.708;2023-04-06T10:38:13;12.30;99.90
60234;DHT22;49514;43.538;-5.708;2023-04-06T10:40:41;12.30;99.90
60234;DHT22;49514;43.538;-5.708;2023-04-06T10:43:12;12.40;99.90
60234;DHT22;49514;43.538;-5.708;2023-04-06T10:45:40;12.40;99.90
60234;DHT22;49514;43.538;-5.708;2023-04-06T10:48:14;12.40;99.90
60234;DHT22;49514;43.538;-5.708;2023-04-06T10:50:47;12.50;99.90
60234;DHT22;49514;43.538;-5.708;2023-04-06T10:53:27;12.60;99.90
60234;DHT22;49514;43.538;-5.708;2023-04-06T10:55:56;12.60;99.90
60234;DHT22;49514;43.538;-5.708;2023-04-06T10:58:27;12.60;99.90
60234;DHT22;49514;43.538;-5.708;2023-04-06T11:00:54;12.60;99.90
60234;DHT22;49514;43.538;-5.708;2023-04-06T11:03:26;12.60;99.90
60234;DHT22;49514;43.538;-5.708;2023-04-06T11:05:53;12.60;99.90
60234;DHT22;49514;43.538;-5.708;2023-04-06T11:11:16;12.70;99.90
60234;DHT22;49514;43.538;-5.708;2023-04-06T11:16:18;12.70;99.90
60234;DHT22;49514;43.538;-5.708;2023-04-06T11:18:52;12.70;99.90
60234;DHT22;49514;43.538;-5.708;2023-04-06T11:21:30;12.80;99.90
60234;DHT22;49514;43.538;-5.708;2023-04-06T11:24:26;12.80;99.90
60234;DHT22;49514;43.538;-5.708;2023-04-06T11:26:53;12.90;99.90
60234;DHT22;49514;43.538;-5.708;2023-04-06T11:29:22;12.90;99.90
60234;DHT22;49514;43.538;-5.708;2023-04-06T11:32:00;13.00;99.90
60234;DHT22;49514;43.538;-5.708;2023-04-06T11:34:29;13.10;99.90
60234;DHT22;49514;43.538;-5.708;2023-04-06T11:36:58;13.10;99.90
60234;DHT22;49514;43.538;-5.708;2023-04-06T11:39:27;13.20;99.90
60234;DHT22;49514;43.538;-5.708;2023-04-06T11:42:01;13.20;99.90
60234;DHT22;49514;43.538;-5.708;2023-04-06T11:47:10;13.40;99.90
60234;DHT22;49514;43.538;-5.708;2023-04-06T11:49:42;13.50;99.90
60234;DHT22;49514;43.538;-5.708;2023-04-06T11:54:48;13.70;99.90
60234;DHT22;49514;43.538;-5.708;2023-04-06T11:57:15;13.70;99.90
60234;DHT22;49514;43.538;-5.708;2023-04-06T11:59:43;13.80;99.90
60234;DHT22;49514;43.538;-5.708;2023-04-06T12:02:10;13.90;99.90
60234;DHT22;49514;43.538;-5.708;2023-04-06T12:04:37;14.00;99.90
60234;DHT22;49514;43.538;-5.708;2023-04-06T12:07:05;14.10;99.90
60234;DHT22;49514;43.538;-5.708;2023-04-06T12:09:32;14.20;99.90
60234;DHT22;49514;43.538;-5.708;2023-04-06T12:11:58;14.20;99.90
60234;DHT22;49514;43.538;-5.708;2023-04-06T12:14:25;14.30;99.90
60234;DHT22;49514;43.538;-5.708;2023-04-06T12:16:52;14.40;99.90
60234;DHT22;49514;43.538;-5.708;2023-04-06T12:19:19;14.50;99.90
60234;DHT22;49514;43.538;-5.708;2023-04-06T12:21:45;14.60;99.90
60234;DHT22;49514;43.538;-5.708;2023-04-06T12:24:12;14.80;99.90
60234;DHT22;49514;43.538;-5.708;2023-04-06T12:26:39;15.00;99.90
60234;DHT22;49514;43.538;-5.708;2023-04-06T12:29:08;15.10;99.90
60234;DHT22;49514;43.538;-5.708;2023-04-06T12:31:35;15.20;99.90
60234;DHT22;49514;43.538;-5.708;2023-04-06T12:34:03;15.20;99.90
60234;DHT22;49514;43.538;-5.708;2023-04-06T12:36:30;15.30;99.90
60234;DHT22;49514;43.538;-5.708;2023-04-06T12:38:57;15.50;99.90
60234;DHT22;49514;43.538;-5.708;2023-04-06T12:41:24;15.80;99.90
60234;DHT22;49514;43.538;-5.708;2023-04-06T12:43:51;16.10;99.90
60234;DHT22;49514;43.538;-5.708;2023-04-06T12:46:18;16.70;99.90
60234;DHT22;49514;43.538;-5.708;2023-04-06T12:48:44;17.50;99.90
60234;DHT22;49514;43.538;-5.708;2023-04-06T12:51:11;18.40;99.90
60234;DHT22;49514;43.538;-5.708;2023-04-06T12:53:38;20.10;99.90
60234;DHT22;49514;43.538;-5.708;2023-04-06T12:56:15;21.70;99.90
60234;DHT22;49514;43.538;-5.708;2023-04-06T12:58:44;23.10;99.90
60234;DHT22;49514;43.538;-5.708;2023-04-06T13:01:13;24.30;99.90
60234;DHT22;49514;43.538;-5.708;2023-04-06T13:03:40;26.20;97.70
60234;DHT22;49514;43.538;-5.708;2023-04-06T13:06:07;27.90;94.40
60234;DHT22;49514;43.538;-5.708;2023-04-06T13:08:38;29.20;90.40
60234;DHT22;49514;43.538;-5.708;2023-04-06T13:11:06;31.30;88.70
60234;DHT22;49514;43.538;-5.708;2023-04-06T13:13:36;33.00;78.20
60234;DHT22;49514;43.538;-5.708;2023-04-06T13:16:08;33.50;79.20
60234;DHT22;49514;43.538;-5.708;2023-04-06T13:18:36;35.90;74.70
60234;DHT22;49514;43.538;-5.708;2023-04-06T13:21:05;35.90;68.50
60234;DHT22;49514;43.538;-5.708;2023-04-06T13:23:33;36.60;67.80
60234;DHT22;49514;43.538;-5.708;2023-04-06T13:26:04;36.50;65.20
60234;DHT22;49514;43.538;-5.708;2023-04-06T13:28:33;37.60;63.60
60234;DHT22;49514;43.538;-5.708;2023-04-06T13:31:01;34.80;59.80
60234;DHT22;49514;43.538;-5.708;2023-04-06T13:33:28;35.00;63.90
60234;DHT22;49514;43.538;-5.708;2023-04-06T13:35:55;34.80;59.30
60234;DHT22;49514;43.538;-5.708;2023-04-06T13:38:23;33.90;60.40
60234;DHT22;49514;43.538;-5.708;2023-04-06T13:40:52;34.90;63.60
60234;DHT22;49514;43.538;-5.708;2023-04-06T13:43:18;37.30;62.00
60234;DHT22;49514;43.538;-5.708;2023-04-06T13:45:52;37.10;59.70
60234;DHT22;49514;43.538;-5.708;2023-04-06T13:48:20;39.70;60.90
60234;DHT22;49514;43.538;-5.708;2023-04-06T13:50:47;40.00;56.40
60234;DHT22;49514;43.538;-5.708;2023-04-06T13:53:13;41.00;54.80
60234;DHT22;49514;43.538;-5.708;2023-04-06T13:55:40;41.10;55.50
60234;DHT22;49514;43.538;-5.708;2023-04-06T13:58:07;41.70;51.70
60234;DHT22;49514;43.538;-5.708;2023-04-06T14:00:34;42.60;52.00
60234;DHT22;49514;43.538;-5.708;2023-04-06T14:03:01;43.20;52.10
60234;DHT22;49514;43.538;-5.708;2023-04-06T14:05:32;43.50;49.60
60234;DHT22;49514;43.538;-5.708;2023-04-06T14:08:01;42.90;50.90
60234;DHT22;49514;43.538;-5.708;2023-04-06T14:10:28;42.90;50.80
60234;DHT22;49514;43.538;-5.708;2023-04-06T14:12:55;43.10;50.40
60234;DHT22;49514;43.538;-5.708;2023-04-06T14:15:21;44.40;49.70
60234;DHT22;49514;43.538;-5.708;2023-04-06T14:22:43;45.90;65.50
60234;DHT22;49514;43.538;-5.708;2023-04-06T14:25:10;45.90;49.50
60234;DHT22;49514;43.538;-5.708;2023-04-06T14:30:04;45.70;45.30
60234;DHT22;49514;43.538;-5.708;2023-04-06T14:32:31;44.60;46.50
60234;DHT22;49514;43.538;-5.708;2023-04-06T14:34:58;45.00;45.70
60234;DHT22;49514;43.538;-5.708;2023-04-06T14:37:24;45.20;45.70
60234;DHT22;49514;43.538;-5.708;2023-04-06T14:39:52;45.70;47.00
60234;DHT22;49514;43.538;-5.708;2023-04-06T14:42:18;46.20;45.80
60234;DHT22;49514;43.538;-5.708;2023-04-06T14:44:44;45.90;46.00
60234;DHT22;49514;43.538;-5.708;2023-04-06T14:47:12;45.60;46.20
60234;DHT22;49514;43.538;-5.708;2023-04-06T14:49:41;45.30;45.10
60234;DHT22;49514;43.538;-5.708;2023-04-06T14:52:08;45.30;44.10
60234;DHT22;49514;43.538;-5.708;2023-04-06T14:54:34;44.30;45.70
60234;DHT22;49514;43.538;-5.708;2023-04-06T14:57:01;45.10;44.50
60234;DHT22;49514;43.538;-5.708;2023-04-06T14:59:27;45.10;46.00
60234;DHT22;49514;43.538;-5.708;2023-04-06T15:01:54;45.40;45.70
60234;DHT22;49514;43.538;-5.708;2023-04-06T15:04:20;45.40;43.30
60234;DHT22;49514;43.538;-5.708;2023-04-06T15:06:47;45.20;43.70
60234;DHT22;49514;43.538;-5.708;2023-04-06T15:09:14;44.90;44.30
60234;DHT22;49514;43.538;-5.708;2023-04-06T15:11:40;44.70;44.10
60234;DHT22;49514;43.538;-5.708;2023-04-06T15:14:07;44.80;43.80
60234;DHT22;49514;43.538;-5.708;2023-04-06T15:16:33;44.20;44.40
60234;DHT22;49514;43.538;-5.708;2023-04-06T15:19:01;45.10;44.30
60234;DHT22;49514;43.538;-5.708;2023-04-06T15:21:28;45.30;42.90
60234;DHT22;49514;43.538;-5.708;2023-04-06T15:23:55;44.10;43.60
60234;DHT22;49514;43.538;-5.708;2023-04-06T15:26:22;44.40;43.50
60234;DHT22;49514;43.538;-5.708;2023-04-06T15:28:49;44.50;44.30
60234;DHT22;49514;43.538;-5.708;2023-04-06T15:31:18;44.50;43.30
60234;DHT22;49514;43.538;-5.708;2023-04-06T15:33:46;45.10;44.40
60234;DHT22;49514;43.538;-5.708;2023-04-06T15:36:28;45.30;43.70
60234;DHT22;49514;43.538;-5.708;2023-04-06T15:38:57;45.20;43.40
60234;DHT22;49514;43.538;-5.708;2023-04-06T15:41:25;45.00;42.90
60234;DHT22;49514;43.538;-5.708;2023-04-06T15:43:54;44.80;43.40
60234;DHT22;49514;43.538;-5.708;2023-04-06T15:46:22;45.20;43.30
60234;DHT22;49514;43.538;-5.708;2023-04-06T15:48:48;44.50;42.80
60234;DHT22;49514;43.538;-5.708;2023-04-06T15:51:15;44.60;42.90
60234;DHT22;49514;43.538;-5.708;2023-04-06T15:53:42;44.60;42.50
60234;DHT22;49514;43.538;-5.708;2023-04-06T15:56:09;44.20;43.20
60234;DHT22;49514;43.538;-5.708;2023-04-06T15:58:36;43.70;42.80
60234;DHT22;49514;43.538;-5.708;2023-04-06T16:01:15;42.50;43.10
60234;DHT22;49514;43.538;-5.708;2023-04-06T16:03:42;42.60;43.60